Time;durP1;ratioP1;P1;durP2;ratioP2;P2;SDS_P1;SDS_P2;PMS_P1;PMS_P2;Temp;Humidity;BMP_temperature;BMP_pressure;BME280_temperature;BME280_humidity;BME280_pressure;Samples;Min_cycle;Max_cycle;Signal;HPM_P1;HPM_P2
2022/01/23 00:00:48;;;;;;;16.23;9.32;;;;;;;;;;2643130;52;20070;-82
2022/01/23 00:03:17;;;;;;;14.87;8.93;;;;;;;;;;2643749;52;21026;-82
2022/01/23 00:05:45;;;;;;;15.95;8.90;;;;;;;;;;2387429;56;21019;-82
2022/01/23 00:08:15;;;;;;;15.98;10.00;;;;;;;;;;2643524;52;21033;-81
2022/01/23 00:10:42;;;;;;;16.85;8.88;;;;;;;;;;2642672;52;21018;-81
2022/01/23 00:13:13;;;;;;;15.35;9.38;;;;;;;;;;2386947;56;21026;-82
2022/01/23 00:18:28;;;;;;;20.80;10.90;;;;;;;;;;2387498;56;20943;-82
2022/01/23 00:20:55;;;;;;;15.57;8.98;;;;;;;;;;2643347;52;21023;-83
2022/01/23 00:30:17;;;;;;;18.33;10.80;;;;;;;;;;2642973;51;21614;-82
2022/01/23 00:31:08;;;;;;;18.92;10.43;;;;;;;;;;2643654;52;21630;-84
2022/01/23 00:33:35;;;;;;;26.10;11.30;;;;;;;;;;2387610;56;21173;-82
2022/01/23 00:36:04;;;;;;;20.70;10.45;;;;;;;;;;2643558;52;21010;-81
2022/01/23 00:38:30;;;;;;;20.15;10.55;;;;;;;;;;2387051;56;21034;-84
2022/01/23 00:40:57;;;;;;;19.12;10.73;;;;;;;;;;2386906;56;21046;-82
2022/01/23 00:43:30;;;;;;;20.65;11.00;;;;;;;;;;2643566;51;21106;-82
2022/01/23 00:46:08;;;;;;;15.98;8.75;;;;;;;;;;2387530;56;21003;-82
2022/01/23 00:48:38;;;;;;;19.55;11.75;;;;;;;;;;2643448;52;21074;-82
2022/01/23 00:51:05;;;;;;;18.45;10.63;;;;;;;;;;2643160;52;21011;-82
2022/01/23 00:53:32;;;;;;;19.00;10.73;;;;;;;;;;2387460;56;21010;-82
2022/01/23 00:55:59;;;;;;;18.85;9.35;;;;;;;;;;2643542;52;21031;-82
2022/01/23 00:58:26;;;;;;;26.95;13.07;;;;;;;;;;2643385;52;21074;-82
2022/01/23 01:00:53;;;;;;;19.40;10.50;;;;;;;;;;2643404;52;21015;-82
2022/01/23 01:03:20;;;;;;;19.10;10.30;;;;;;;;;;2387287;56;21026;-82
2022/01/23 01:05:47;;;;;;;23.85;11.95;;;;;;;;;;2387763;56;21070;-83
2022/01/23 01:08:14;;;;;;;20.70;11.50;;;;;;;;;;2643446;52;21022;-83
2022/01/23 01:10:50;;;;;;;22.80;11.80;;;;;;;;;;2386924;56;21022;-83
2022/01/23 01:13:17;;;;;;;21.62;11.60;;;;;;;;;;2387620;56;21050;-83
2022/01/23 01:16:02;;;;;;;24.35;11.48;;;;;;;;;;2643449;52;21042;-82
2022/01/23 01:32:41;;;;;;;17.40;8.93;;;;;;;;;;2346128;57;21049;-78
2022/01/23 01:35:19;;;;;;;15.52;8.63;;;;;;;;;;2593703;53;21034;-77
2022/01/23 01:37:46;;;;;;;15.75;7.47;;;;;;;;;;2593511;53;21050;-76
2022/01/23 01:40:13;;;;;;;14.07;8.00;;;;;;;;;;2346105;57;21054;-76
2022/01/23 01:42:41;;;;;;;15.82;8.30;;;;;;;;;;2346097;57;21121;-78
2022/01/23 01:45:08;;;;;;;12.55;6.68;;;;;;;;;;2346307;57;21089;-77
2022/01/23 01:47:35;;;;;;;15.13;7.87;;;;;;;;;;2345938;57;21066;-78
2022/01/23 01:50:04;;;;;;;27.25;9.75;;;;;;;;;;2593169;53;21118;-78
2022/01/23 01:52:33;;;;;;;11.65;6.78;;;;;;;;;;2346547;57;21106;-78
2022/01/23 01:55:04;;;;;;;13.62;6.30;;;;;;;;;;2346480;57;21125;-78
2022/01/23 01:57:39;;;;;;;11.35;6.18;;;;;;;;;;2346807;57;21153;-77
2022/01/23 02:00:25;;;;;;;9.85;6.62;;;;;;;;;;2346319;57;21065;-78
2022/01/23 02:03:23;;;;;;;12.37;5.82;;;;;;;;;;2594117;53;21058;-78
2022/01/23 02:08:37;;;;;;;10.07;5.20;;;;;;;;;;2346324;57;21021;-77
2022/01/23 02:11:09;;;;;;;12.50;5.85;;;;;;;;;;2345616;57;21529;-78
2022/01/23 02:13:42;;;;;;;9.02;5.22;;;;;;;;;;2346603;57;21058;-77
2022/01/23 02:52:28;;;;;;;14.68;6.50;;;;;;;;;;2345190;57;21030;-77
2022/01/23 02:54:57;;;;;;;12.07;6.37;;;;;;;;;;2345279;57;21042;-77
2022/01/23 02:57:47;;;;;;;12.25;6.55;;;;;;;;;;2591818;53;21164;-77
2022/01/23 03:00:18;;;;;;;11.70;6.30;;;;;;;;;;2591694;53;21074;-76
2022/01/23 03:02:48;;;;;;;12.15;6.40;;;;;;;;;;2344896;57;21046;-76
2022/01/23 03:05:32;;;;;;;9.48;5.87;;;;;;;;;;2592094;53;21093;-77
2022/01/23 03:08:04;;;;;;;8.73;5.80;;;;;;;;;;2591953;53;21058;-75
2022/01/23 03:10:36;;;;;;;12.80;6.45;;;;;;;;;;2344126;57;21122;-77
2022/01/23 03:24:00;;;;;;;11.18;6.28;;;;;;;;;;2345097;57;21101;-77
2022/01/23 03:24:20;;;;;;;13.43;6.90;;;;;;;;;;2345091;57;21110;-77
2022/01/23 03:29:52;;;;;;;11.65;5.72;;;;;;;;;;2343474;57;21058;-77
2022/01/23 03:32:24;;;;;;;10.60;5.90;;;;;;;;;;2345234;57;21101;-75
2022/01/23 03:34:51;;;;;;;10.23;5.97;;;;;;;;;;2345444;57;21086;-75
2022/01/23 03:37:18;;;;;;;15.48;6.78;;;;;;;;;;2345098;57;21042;-76
2022/01/23 03:39:45;;;;;;;12.98;7.53;;;;;;;;;;2344749;57;21140;-76
2022/01/23 03:42:12;;;;;;;14.80;7.40;;;;;;;;;;2345279;57;21057;-77
2022/01/23 03:44:49;;;;;;;16.77;8.07;;;;;;;;;;2509085;52;21058;-78
2022/01/23 03:47:20;;;;;;;13.65;7.32;;;;;;;;;;2561543;52;21064;-77
2022/01/23 03:49:48;;;;;;;13.45;8.07;;;;;;;;;;2327595;57;21113;-77
2022/01/23 03:52:16;;;;;;;14.95;7.97;;;;;;;;;;2347306;57;21073;-77
2022/01/23 03:54:43;;;;;;;18.17;8.05;;;;;;;;;;2347020;57;21089;-77
2022/01/23 03:57:10;;;;;;;14.43;7.68;;;;;;;;;;2347045;57;21041;-77
2022/01/23 03:59:38;;;;;;;12.05;6.70;;;;;;;;;;2346697;57;21105;-77
2022/01/23 04:02:06;;;;;;;12.93;7.43;;;;;;;;;;2346784;57;21527;-78
2022/01/23 04:04:39;;;;;;;14.95;7.25;;;;;;;;;;2594139;53;21062;-77
2022/01/23 04:07:08;;;;;;;11.35;6.43;;;;;;;;;;2347119;57;21359;-77
2022/01/23 04:09:35;;;;;;;10.82;6.35;;;;;;;;;;2346622;57;21074;-77
2022/01/23 04:12:04;;;;;;;12.65;6.80;;;;;;;;;;2346833;57;21042;-77
2022/01/23 04:14:33;;;;;;;12.15;7.12;;;;;;;;;;2346693;57;21141;-77
2022/01/23 04:17:25;;;;;;;12.88;6.62;;;;;;;;;;2347219;57;21120;-77
2022/01/23 04:33:53;;;;;;;10.18;5.72;;;;;;;;;;2374915;56;21070;-76
2022/01/23 05:01:32;;;;;;;11.20;5.80;;;;;;;;;;2374873;56;21023;-77
2022/01/23 05:04:13;;;;;;;12.85;6.80;;;;;;;;;;2375221;56;21248;-77
2022/01/23 05:06:46;;;;;;;17.12;7.57;;;;;;;;;;2374756;56;21046;-77
2022/01/23 05:09:13;;;;;;;14.68;6.95;;;;;;;;;;2374913;56;21047;-76
2022/01/23 05:11:47;;;;;;;12.93;7.00;;;;;;;;;;2374670;56;21031;-77
2022/01/23 05:14:15;;;;;;;15.40;6.43;;;;;;;;;;2374932;56;21031;-77
2022/01/23 05:16:42;;;;;;;15.98;6.82;;;;;;;;;;2628319;52;21047;-76
2022/01/23 05:19:09;;;;;;;14.00;6.70;;;;;;;;;;2373340;56;21062;-77
2022/01/23 05:24:34;;;;;;;12.97;6.50;;;;;;;;;;2316558;56;21574;-77
2022/01/23 05:27:02;;;;;;;11.93;6.22;;;;;;;;;;2375034;56;21758;-77
2022/01/23 05:29:29;;;;;;;15.68;7.12;;;;;;;;;;2374298;56;21122;-76
2022/01/23 05:31:56;;;;;;;18.35;7.72;;;;;;;;;;2628691;52;21035;-77
2022/01/23 05:34:24;;;;;;;19.58;8.13;;;;;;;;;;2374587;56;21039;-77
2022/01/23 05:36:52;;;;;;;11.35;5.15;;;;;;;;;;2374947;56;21047;-77
2022/01/23 05:39:21;;;;;;;9.85;4.95;;;;;;;;;;2373214;56;21699;-77
2022/01/23 05:41:52;;;;;;;11.12;4.55;;;;;;;;;;2372654;56;21043;-77
2022/01/23 05:44:20;;;;;;;9.07;4.87;;;;;;;;;;2373109;56;21061;-77
2022/01/23 05:46:46;;;;;;;9.63;5.00;;;;;;;;;;2373330;56;21051;-77
2022/01/23 05:49:14;;;;;;;10.35;5.57;;;;;;;;;;2373619;56;21051;-76
2022/01/23 05:51:41;;;;;;;7.32;4.50;;;;;;;;;;2373040;56;21031;-77
2022/01/23 05:54:08;;;;;;;9.85;5.18;;;;;;;;;;2372797;56;22230;-77
2022/01/23 05:56:35;;;;;;;8.65;5.05;;;;;;;;;;2627185;52;21043;-77
2022/01/23 05:59:02;;;;;;;10.55;5.35;;;;;;;;;;2372525;56;21055;-76
2022/01/23 06:01:29;;;;;;;8.80;5.28;;;;;;;;;;2373563;56;21106;-76
2022/01/23 06:03:56;;;;;;;10.40;5.30;;;;;;;;;;2373464;56;21086;-77
2022/01/23 06:06:23;;;;;;;8.88;5.22;;;;;;;;;;2373800;56;21129;-77
2022/01/23 06:08:50;;;;;;;7.87;4.75;;;;;;;;;;2373503;56;21059;-77
2022/01/23 06:11:17;;;;;;;8.77;4.68;;;;;;;;;;2373826;56;21043;-77
2022/01/23 06:13:44;;;;;;;9.60;5.15;;;;;;;;;;2373649;56;21032;-77
2022/01/23 06:16:11;;;;;;;5.62;4.10;;;;;;;;;;2373561;56;21047;-77
2022/01/23 06:18:40;;;;;;;9.25;4.87;;;;;;;;;;2373980;56;21039;-77
2022/01/23 06:21:07;;;;;;;58.45;10.15;;;;;;;;;;2373548;56;21315;-76
2022/01/23 06:23:34;;;;;;;7.25;4.07;;;;;;;;;;2373815;56;21078;-77
2022/01/23 06:26:02;;;;;;;8.55;4.87;;;;;;;;;;2373714;56;21183;-77
2022/01/23 06:28:35;;;;;;;7.43;4.43;;;;;;;;;;2373755;56;21046;-77
2022/01/23 06:31:02;;;;;;;9.95;5.03;;;;;;;;;;2372777;56;21086;-77
2022/01/23 06:33:30;;;;;;;7.93;4.82;;;;;;;;;;2373781;56;21043;-77
2022/01/23 06:35:57;;;;;;;8.85;5.55;;;;;;;;;;2374017;56;21549;-75
2022/01/23 06:38:24;;;;;;;9.65;5.25;;;;;;;;;;2373687;56;21054;-77
2022/01/23 06:40:51;;;;;;;10.35;5.30;;;;;;;;;;2373407;56;21329;-76
2022/01/23 06:43:18;;;;;;;13.98;5.85;;;;;;;;;;2373604;56;21098;-76
2022/01/23 06:45:45;;;;;;;9.63;5.70;;;;;;;;;;2373918;56;21079;-77
2022/01/23 06:48:12;;;;;;;9.60;5.45;;;;;;;;;;2373635;56;21055;-77
2022/01/23 06:50:40;;;;;;;9.02;5.07;;;;;;;;;;2373102;56;21038;-77
2022/01/23 06:53:07;;;;;;;9.35;4.62;;;;;;;;;;2373609;56;21078;-77
2022/01/23 06:55:34;;;;;;;8.00;4.72;;;;;;;;;;2373609;56;21055;-76
2022/01/23 06:58:01;;;;;;;10.95;5.53;;;;;;;;;;2371782;56;21168;-76
2022/01/23 07:00:28;;;;;;;11.18;5.37;;;;;;;;;;2373256;56;21055;-77
2022/01/23 07:02:54;;;;;;;8.70;4.90;;;;;;;;;;2373460;56;21561;-76
2022/01/23 07:05:22;;;;;;;11.55;5.37;;;;;;;;;;2373558;56;21617;-77
2022/01/23 07:07:49;;;;;;;11.32;6.47;;;;;;;;;;2373064;56;21051;-76
2022/01/23 07:10:16;;;;;;;18.73;8.00;;;;;;;;;;2373675;56;21081;-77
2022/01/23 07:12:43;;;;;;;10.40;5.95;;;;;;;;;;2373958;56;21058;-76
2022/01/23 07:15:10;;;;;;;8.77;5.87;;;;;;;;;;2373143;56;21031;-77
2022/01/23 07:17:40;;;;;;;10.68;5.95;;;;;;;;;;2373800;56;21122;-77
2022/01/23 07:20:08;;;;;;;10.27;5.93;;;;;;;;;;2373379;56;21055;-77
2022/01/23 07:22:35;;;;;;;7.78;3.92;;;;;;;;;;2374092;56;21035;-77
2022/01/23 07:25:03;;;;;;;10.27;5.62;;;;;;;;;;2373147;56;21110;-76
2022/01/23 07:27:34;;;;;;;4.37;2.80;;;;;;;;;;2373838;56;21114;-77
2022/01/23 07:30:01;;;;;;;5.00;3.03;;;;;;;;;;2373542;56;21039;-77
2022/01/23 07:32:28;;;;;;;8.50;3.83;;;;;;;;;;2626707;52;21031;-76
2022/01/23 07:34:55;;;;;;;7.62;3.15;;;;;;;;;;2372583;56;21134;-77
2022/01/23 07:37:22;;;;;;;7.35;3.47;;;;;;;;;;2373582;56;21694;-77
2022/01/23 07:39:49;;;;;;;7.18;2.75;;;;;;;;;;2373425;56;21115;-77
2022/01/23 07:42:16;;;;;;;4.00;2.37;;;;;;;;;;2373849;56;21545;-77
2022/01/23 07:44:43;;;;;;;4.68;2.30;;;;;;;;;;2373362;56;21031;-77
2022/01/23 07:47:10;;;;;;;4.62;1.90;;;;;;;;;;2373679;56;21533;-77
2022/01/23 07:49:37;;;;;;;6.43;2.72;;;;;;;;;;2371965;56;21122;-77
2022/01/23 07:52:05;;;;;;;5.53;2.42;;;;;;;;;;2373539;56;21533;-76
2022/01/23 07:54:32;;;;;;;4.47;2.53;;;;;;;;;;2372720;56;21106;-76
2022/01/23 07:56:59;;;;;;;3.40;2.53;;;;;;;;;;2372236;56;21055;-76
2022/01/23 07:59:26;;;;;;;7.35;2.55;;;;;;;;;;2373519;56;21055;-76
2022/01/23 08:01:53;;;;;;;5.87;3.12;;;;;;;;;;2373697;56;21027;-76
2022/01/23 08:04:20;;;;;;;3.37;2.37;;;;;;;;;;2373946;56;21034;-76
2022/01/23 08:06:54;;;;;;;4.75;2.78;;;;;;;;;;2373712;56;21106;-76
2022/01/23 08:09:21;;;;;;;3.10;1.98;;;;;;;;;;2626495;52;21047;-76
2022/01/23 08:11:48;;;;;;;3.28;1.90;;;;;;;;;;2373799;56;21043;-76
2022/01/23 08:14:15;;;;;;;2.42;1.55;;;;;;;;;;2373748;56;21055;-76
2022/01/23 08:16:42;;;;;;;2.62;1.77;;;;;;;;;;2373908;56;21035;-76
2022/01/23 08:19:09;;;;;;;3.17;1.92;;;;;;;;;;2373184;56;21114;-76
2022/01/23 08:21:36;;;;;;;3.00;1.92;;;;;;;;;;2374023;56;21023;-76
2022/01/23 08:24:03;;;;;;;3.83;1.87;;;;;;;;;;2372961;56;21038;-76
2022/01/23 08:26:30;;;;;;;1.65;1.50;;;;;;;;;;2373441;56;21054;-75
2022/01/23 08:28:57;;;;;;;2.90;1.75;;;;;;;;;;2373445;56;21087;-76
2022/01/23 08:31:24;;;;;;;2.72;1.50;;;;;;;;;;2373594;56;21633;-76
2022/01/23 08:33:53;;;;;;;3.37;1.58;;;;;;;;;;2373754;56;21119;-76
2022/01/23 08:36:20;;;;;;;4.30;1.73;;;;;;;;;;2373754;56;21035;-76
2022/01/23 08:38:47;;;;;;;5.28;2.20;;;;;;;;;;2373229;56;21027;-76
2022/01/23 08:44:01;;;;;;;6.00;2.05;;;;;;;;;;2373437;56;21038;-75
2022/01/23 08:46:28;;;;;;;4.07;2.03;;;;;;;;;;2374015;56;21126;-76
2022/01/23 08:48:56;;;;;;;4.57;2.08;;;;;;;;;;2373271;56;21035;-76
2022/01/23 08:51:23;;;;;;;3.92;1.73;;;;;;;;;;2373774;56;21031;-76
2022/01/23 08:53:50;;;;;;;2.53;1.83;;;;;;;;;;2373486;56;21093;-75
2022/01/23 08:56:17;;;;;;;4.65;2.30;;;;;;;;;;2373794;56;21051;-75
2022/01/23 08:58:44;;;;;;;5.93;2.62;;;;;;;;;;2373178;56;21038;-76
2022/01/23 09:01:11;;;;;;;3.58;2.83;;;;;;;;;;2373499;56;21061;-76
2022/01/23 09:03:39;;;;;;;4.22;2.60;;;;;;;;;;2373273;56;21577;-76
2022/01/23 09:06:07;;;;;;;5.12;3.25;;;;;;;;;;2373368;56;21186;-76
2022/01/23 09:08:37;;;;;;;7.95;3.70;;;;;;;;;;2372687;56;21059;-77
2022/01/23 09:11:09;;;;;;;8.48;3.28;;;;;;;;;;2373050;56;21043;-77
2022/01/23 09:13:52;;;;;;;5.87;2.60;;;;;;;;;;2373946;56;21043;-78
2022/01/23 09:16:19;;;;;;;2.67;1.45;;;;;;;;;;2374596;56;21015;-78
2022/01/23 09:18:47;;;;;;;5.25;2.65;;;;;;;;;;2373607;56;21047;-77
2022/01/23 09:21:14;;;;;;;4.57;1.85;;;;;;;;;;2373676;56;21035;-78
2022/01/23 09:23:41;;;;;;;5.35;2.55;;;;;;;;;;2373787;56;21047;-76
2022/01/23 09:26:10;;;;;;;4.78;2.72;;;;;;;;;;2373111;56;21027;-77
2022/01/23 09:28:40;;;;;;;3.65;2.65;;;;;;;;;;2374190;56;21054;-77
2022/01/23 09:31:07;;;;;;;4.40;2.42;;;;;;;;;;2373198;56;21162;-77
2022/01/23 09:33:34;;;;;;;5.57;2.62;;;;;;;;;;2626707;52;21098;-76
2022/01/23 09:36:01;;;;;;;5.37;2.45;;;;;;;;;;2373950;56;21110;-77
2022/01/23 09:38:28;;;;;;;6.50;2.83;;;;;;;;;;2373621;56;21047;-77
2022/01/23 09:40:57;;;;;;;5.90;2.58;;;;;;;;;;2373266;56;21043;-76
2022/01/23 09:43:24;;;;;;;9.80;4.03;;;;;;;;;;2373448;56;21581;-77
2022/01/23 09:45:53;;;;;;;8.23;3.60;;;;;;;;;;2399339;54;21148;-78
2022/01/23 09:48:22;;;;;;;7.15;4.40;;;;;;;;;;2301333;58;21713;-79
2022/01/23 09:50:49;;;;;;;7.18;3.55;;;;;;;;;;2537683;54;21075;-80
2022/01/23 09:53:17;;;;;;;7.62;3.42;;;;;;;;;;2300581;58;21094;-79
2022/01/23 09:55:46;;;;;;;7.30;3.58;;;;;;;;;;2537684;54;21106;-79
2022/01/23 09:58:14;;;;;;;11.75;5.03;;;;;;;;;;2300814;58;21647;-79
2022/01/23 10:00:41;;;;;;;7.00;3.58;;;;;;;;;;2300050;58;21042;-79
2022/01/23 10:03:08;;;;;;;4.75;2.85;;;;;;;;;;2300355;58;21047;-79
2022/01/23 10:05:35;;;;;;;11.70;3.47;;;;;;;;;;2299482;58;21066;-79
2022/01/23 10:08:03;;;;;;;9.10;2.85;;;;;;;;;;2299850;58;21106;-78
2022/01/23 10:10:35;;;;;;;5.15;2.35;;;;;;;;;;2299643;58;21221;-79
2022/01/23 10:13:03;;;;;;;5.37;2.37;;;;;;;;;;2536374;54;21130;-79
2022/01/23 10:15:32;;;;;;;8.38;3.17;;;;;;;;;;2300194;58;21118;-79
2022/01/23 10:18:00;;;;;;;6.00;3.30;;;;;;;;;;2300495;58;21352;-79
2022/01/23 10:20:27;;;;;;;6.85;3.20;;;;;;;;;;2299992;58;21596;-79
2022/01/23 10:22:55;;;;;;;5.57;2.20;;;;;;;;;;2537219;54;21404;-78
2022/01/23 10:25:23;;;;;;;7.85;1.75;;;;;;;;;;2300458;58;21152;-80
2022/01/23 10:30:34;;;;;;;5.32;2.33;;;;;;;;;;2604895;53;22571;-76
2022/01/23 10:33:04;;;;;;;11.10;5.60;;;;;;;;;;2594785;53;21061;-75
2022/01/23 10:35:31;;;;;;;4.70;2.72;;;;;;;;;;2349764;56;22101;-75
2022/01/23 10:38:04;;;;;;;4.60;3.20;;;;;;;;;;2374592;56;21102;-79
2022/01/23 10:40:35;;;;;;;3.87;1.73;;;;;;;;;;2374327;56;21071;-82
2022/01/23 10:48:57;;;;;;;3.10;1.98;;;;;;;;;;2375807;56;21054;-79
2022/01/23 10:51:27;;;;;;;3.35;2.40;;;;;;;;;;2376237;56;21038;-79
2022/01/23 10:54:06;;;;;;;4.32;2.10;;;;;;;;;;2376340;56;21126;-80
2022/01/23 10:56:34;;;;;;;5.80;2.17;;;;;;;;;;2377206;56;21078;-82
2022/01/23 10:59:02;;;;;;;5.32;1.77;;;;;;;;;;2376334;56;21682;-79
2022/01/23 11:01:29;;;;;;;3.58;1.95;;;;;;;;;;2377543;56;22088;-80
2022/01/23 11:04:11;;;;;;;3.00;2.03;;;;;;;;;;2377285;56;21039;-81
2022/01/23 11:06:54;;;;;;;6.85;2.67;;;;;;;;;;2377321;56;21114;-80
2022/01/23 11:09:25;;;;;;;4.57;2.70;;;;;;;;;;2630703;52;21119;-80
2022/01/23 11:12:00;;;;;;;3.25;2.35;;;;;;;;;;2630092;52;21062;-79
2022/01/23 11:17:22;;;;;;;5.87;3.10;;;;;;;;;;2375499;56;21069;-80
2022/01/23 11:19:50;;;;;;;4.28;2.83;;;;;;;;;;2631122;52;21083;-81
2022/01/23 11:22:17;;;;;;;6.30;2.72;;;;;;;;;;2631525;52;21119;-80
2022/01/23 11:24:47;;;;;;;9.10;4.40;;;;;;;;;;2377439;56;21067;-80
2022/01/23 11:27:14;;;;;;;9.18;4.30;;;;;;;;;;2631004;52;21047;-82
2022/01/23 11:29:53;;;;;;;16.75;6.62;;;;;;;;;;2631064;52;21111;-80
2022/01/23 11:32:23;;;;;;;16.65;6.53;;;;;;;;;;2631770;52;21638;-81
2022/01/23 11:34:51;;;;;;;15.48;6.05;;;;;;;;;;2632335;52;21110;-83
2022/01/23 11:37:19;;;;;;;17.87;6.53;;;;;;;;;;2377554;56;21134;-78
2022/01/23 11:39:50;;;;;;;13.48;5.72;;;;;;;;;;2376761;56;21110;-80
2022/01/23 11:50:51;;;;;;;13.05;6.70;;;;;;;;;;2375343;56;20971;-81
2022/01/23 11:56:42;;;;;;;17.05;5.78;;;;;;;;;;2320993;56;21051;-81
2022/01/23 11:59:17;;;;;;;19.80;5.62;;;;;;;;;;2375355;56;21523;-82
2022/01/23 12:01:45;;;;;;;16.05;5.00;;;;;;;;;;2629812;52;21050;-81
2022/01/23 12:04:18;;;;;;;14.20;6.68;;;;;;;;;;2628473;52;21023;-83
2022/01/23 12:07:17;;;;;;;14.05;6.53;;;;;;;;;;2374408;56;21121;-78
2022/01/23 12:10:09;;;;;;;12.77;5.97;;;;;;;;;;2626481;52;21059;-80
2022/01/23 12:12:40;;;;;;;11.68;5.22;;;;;;;;;;2626865;52;21039;-82
2022/01/23 12:18:13;;;;;;;13.48;4.43;;;;;;;;;;2374128;56;20990;-81
2022/01/23 12:20:40;;;;;;;10.73;4.22;;;;;;;;;;2372930;56;21070;-80
2022/01/23 12:23:07;;;;;;;7.22;3.67;;;;;;;;;;2373728;56;21035;-80
2022/01/23 12:25:40;;;;;;;7.85;4.12;;;;;;;;;;2373735;56;21697;-82
2022/01/23 12:28:24;;;;;;;7.78;4.25;;;;;;;;;;2374074;56;21059;-80
2022/01/23 12:30:53;;;;;;;10.70;3.75;;;;;;;;;;2626659;52;21055;-81
2022/01/23 12:33:48;;;;;;;8.88;3.58;;;;;;;;;;2373880;56;21051;-77
2022/01/23 12:36:27;;;;;;;12.88;3.90;;;;;;;;;;2342648;56;21039;-82
2022/01/23 12:38:55;;;;;;;9.30;4.03;;;;;;;;;;2627942;52;21627;-81
2022/01/23 12:41:28;;;;;;;10.95;4.82;;;;;;;;;;2628591;52;21091;-83
2022/01/23 12:43:57;;;;;;;11.85;4.75;;;;;;;;;;2629383;52;21062;-82
2022/01/23 12:46:26;;;;;;;13.15;5.07;;;;;;;;;;2629566;52;21067;-82
2022/01/23 12:48:53;;;;;;;12.98;5.57;;;;;;;;;;2628870;52;21066;-81
2022/01/23 12:51:34;;;;;;;9.85;5.30;;;;;;;;;;2628995;52;21092;-80
2022/01/23 12:54:22;;;;;;;11.93;5.53;;;;;;;;;;2628321;52;21062;-77
2022/01/23 12:56:50;;;;;;;9.80;4.07;;;;;;;;;;2628062;52;21071;-79
2022/01/23 12:59:23;;;;;;;12.25;4.50;;;;;;;;;;2627919;52;21047;-79
2022/01/23 13:01:57;;;;;;;5.18;4.07;;;;;;;;;;2629795;52;21115;-84
2022/01/23 13:04:25;;;;;;;9.48;4.37;;;;;;;;;;2377633;56;21047;-84
2022/01/23 13:06:55;;;;;;;8.88;4.50;;;;;;;;;;2631358;52;21063;-85
2022/01/23 13:09:28;;;;;;;9.77;4.72;;;;;;;;;;2630501;52;21050;-82
2022/01/23 13:12:04;;;;;;;7.57;5.20;;;;;;;;;;2630055;52;21114;-82
2022/01/23 13:14:40;;;;;;;12.75;4.80;;;;;;;;;;2629675;52;21043;-80
2022/01/23 13:17:27;;;;;;;8.57;4.28;;;;;;;;;;2376255;56;21047;-81
2022/01/23 13:29:31;;;;;;;9.85;2.90;;;;;;;;;;2375731;56;21122;-80
2022/01/23 13:32:04;;;;;;;6.72;2.53;;;;;;;;;;2630748;52;21119;-80
2022/01/23 13:34:32;;;;;;;9.82;3.45;;;;;;;;;;2376753;56;21030;-80
2022/01/23 13:37:01;;;;;;;4.35;2.40;;;;;;;;;;2629989;52;21666;-79
2022/01/23 13:39:30;;;;;;;9.90;2.50;;;;;;;;;;2629507;52;21145;-81
2022/01/23 13:42:03;;;;;;;9.68;3.20;;;;;;;;;;2630228;52;21095;-80
2022/01/23 13:52:58;;;;;;;6.93;2.20;;;;;;;;;;2376923;56;20994;-82
2022/01/23 14:01:31;;;;;;;6.22;1.77;;;;;;;;;;2372343;56;21111;-81
2022/01/23 14:03:59;;;;;;;2.72;1.92;;;;;;;;;;2629791;52;21047;-81
2022/01/23 14:06:26;;;;;;;3.08;1.08;;;;;;;;;;2629707;52;21275;-82
2022/01/23 14:09:06;;;;;;;3.42;1.10;;;;;;;;;;2629573;52;21066;-81
2022/01/23 14:11:33;;;;;;;8.30;1.80;;;;;;;;;;2376251;56;21019;-79
2022/01/23 14:16:46;;;;;;;4.12;1.40;;;;;;;;;;2355811;57;22109;-76
2022/01/23 14:19:14;;;;;;;1.85;1.05;;;;;;;;;;2348673;56;21551;-74
2022/01/23 14:21:42;;;;;;;2.95;1.55;;;;;;;;;;2374523;56;21051;-75
2022/01/23 14:24:09;;;;;;;2.12;0.90;;;;;;;;;;2374957;56;21426;-75
2022/01/23 14:26:36;;;;;;;2.83;1.08;;;;;;;;;;2375013;56;21107;-74
2022/01/23 14:29:05;;;;;;;3.28;1.02;;;;;;;;;;2374578;56;21939;-76
2022/01/23 14:31:37;;;;;;;6.18;1.40;;;;;;;;;;2375136;56;21603;-73
2022/01/23 14:34:06;;;;;;;3.10;1.10;;;;;;;;;;2375021;56;21043;-74
2022/01/23 14:36:35;;;;;;;2.05;1.35;;;;;;;;;;2375481;56;21039;-73
2022/01/23 14:39:04;;;;;;;4.97;1.00;;;;;;;;;;2374717;56;21106;-76
2022/01/23 14:41:31;;;;;;;4.65;1.62;;;;;;;;;;2375075;56;21035;-74
2022/01/23 14:43:58;;;;;;;1.37;0.77;;;;;;;;;;2375004;56;21490;-76
2022/01/23 14:46:25;;;;;;;3.90;1.40;;;;;;;;;;2374861;56;21027;-77
2022/01/23 14:48:59;;;;;;;1.77;1.08;;;;;;;;;;2374473;56;21138;-77
2022/01/23 14:51:29;;;;;;;4.78;1.80;;;;;;;;;;2375337;56;21111;-73
2022/01/23 14:53:56;;;;;;;3.60;1.60;;;;;;;;;;2374915;56;21054;-73
2022/01/23 14:56:25;;;;;;;4.97;1.10;;;;;;;;;;2374721;56;21039;-76
2022/01/23 14:58:52;;;;;;;4.97;1.12;;;;;;;;;;2374475;56;21128;-76
2022/01/23 15:01:19;;;;;;;4.85;1.12;;;;;;;;;;2628925;52;21026;-76
2022/01/23 15:03:48;;;;;;;2.33;1.30;;;;;;;;;;2375150;56;21174;-75
2022/01/23 15:06:16;;;;;;;2.95;1.55;;;;;;;;;;2374386;56;21055;-73
2022/01/23 15:08:45;;;;;;;3.30;1.23;;;;;;;;;;2374873;56;21091;-79
2022/01/23 15:11:12;;;;;;;3.30;1.27;;;;;;;;;;2375475;56;21078;-78
2022/01/23 15:13:39;;;;;;;5.75;1.17;;;;;;;;;;2374248;56;21557;-75
2022/01/23 15:16:06;;;;;;;3.42;1.40;;;;;;;;;;2374761;56;21178;-75
2022/01/23 15:18:35;;;;;;;2.72;1.15;;;;;;;;;;2374585;56;21023;-75
2022/01/23 15:21:02;;;;;;;3.47;1.20;;;;;;;;;;2374684;56;21031;-75
2022/01/23 15:23:29;;;;;;;4.65;1.40;;;;;;;;;;2374780;56;21593;-75
2022/01/23 15:25:56;;;;;;;1.50;1.40;;;;;;;;;;2374496;56;21209;-75
2022/01/23 15:28:23;;;;;;;6.70;1.80;;;;;;;;;;2373691;56;21055;-76
2022/01/23 15:30:50;;;;;;;8.02;1.85;;;;;;;;;;2373265;56;21117;-75
2022/01/23 15:33:17;;;;;;;4.25;1.33;;;;;;;;;;2373825;56;21054;-77
2022/01/23 15:35:47;;;;;;;5.75;1.60;;;;;;;;;;2373959;56;21110;-74
2022/01/23 15:38:14;;;;;;;2.83;1.48;;;;;;;;;;2374145;56;21035;-75
2022/01/23 15:40:41;;;;;;;2.50;1.75;;;;;;;;;;2373070;56;21529;-74
2022/01/23 15:43:08;;;;;;;7.00;2.55;;;;;;;;;;2373545;56;21043;-76
2022/01/23 15:45:45;;;;;;;;;;;;;;;;;;;;;
2022/01/23 15:48:14;;;;;;;5.62;3.60;;;;;;;;;;2376942;56;21047;-80
2022/01/23 15:50:42;;;;;;;7.15;4.47;;;;;;;;;;2358122;56;21057;-79
2022/01/23 15:53:09;;;;;;;12.30;4.93;;;;;;;;;;2349444;57;21048;-78
2022/01/23 15:55:37;;;;;;;6.87;2.90;;;;;;;;;;2348164;57;21097;-78
2022/01/23 15:58:04;;;;;;;5.25;2.28;;;;;;;;;;2349354;57;21057;-79
2022/01/23 16:00:31;;;;;;;5.22;2.62;;;;;;;;;;2348054;57;21065;-78
2022/01/23 16:02:59;;;;;;;4.10;1.73;;;;;;;;;;2348828;57;21133;-78
2022/01/23 16:05:26;;;;;;;7.22;2.42;;;;;;;;;;2348019;57;21037;-79
2022/01/23 16:07:53;;;;;;;4.70;2.03;;;;;;;;;;2348810;57;21523;-79
2022/01/23 16:10:20;;;;;;;8.75;2.72;;;;;;;;;;2348716;57;21057;-78
2022/01/23 16:12:47;;;;;;;3.72;2.05;;;;;;;;;;2347994;57;21544;-78
2022/01/23 16:15:15;;;;;;;3.15;2.10;;;;;;;;;;2596461;53;21128;-77
2022/01/23 16:17:43;;;;;;;4.72;2.45;;;;;;;;;;2349040;57;21109;-77
2022/01/23 16:20:11;;;;;;;4.82;2.62;;;;;;;;;;2348351;57;21165;-77
2022/01/23 16:22:38;;;;;;;10.27;3.03;;;;;;;;;;2349051;57;21041;-77
2022/01/23 16:25:07;;;;;;;7.30;3.03;;;;;;;;;;2348914;57;21069;-77
2022/01/23 16:27:34;;;;;;;5.07;2.30;;;;;;;;;;2347857;57;21032;-78
2022/01/23 16:30:01;;;;;;;7.50;2.87;;;;;;;;;;2348336;57;21049;-78
2022/01/23 16:32:27;;;;;;;9.23;3.12;;;;;;;;;;2349095;57;21551;-78
2022/01/23 16:34:54;;;;;;;5.87;2.80;;;;;;;;;;2349322;57;21136;-78
2022/01/23 16:37:21;;;;;;;5.68;3.00;;;;;;;;;;2348792;57;21120;-78
2022/01/23 16:39:48;;;;;;;6.12;2.62;;;;;;;;;;2596343;53;21033;-78
2022/01/23 16:42:16;;;;;;;5.12;2.60;;;;;;;;;;2348926;57;21068;-78
2022/01/23 16:44:43;;;;;;;4.85;2.50;;;;;;;;;;2596410;53;21045;-77
2022/01/23 16:47:11;;;;;;;7.75;3.25;;;;;;;;;;2348631;57;21199;-76
2022/01/23 16:49:38;;;;;;;6.03;3.00;;;;;;;;;;2348300;57;21120;-77
2022/01/23 16:52:09;;;;;;;5.57;2.95;;;;;;;;;;2349082;57;21053;-77
2022/01/23 16:54:36;;;;;;;6.47;3.20;;;;;;;;;;2349073;57;21512;-77
2022/01/23 16:57:04;;;;;;;5.62;2.72;;;;;;;;;;2348902;57;21089;-78
2022/01/23 16:59:31;;;;;;;6.00;3.25;;;;;;;;;;2348715;57;21045;-77
2022/01/23 17:01:58;;;;;;;9.43;3.33;;;;;;;;;;2349467;57;21029;-77
2022/01/23 17:04:25;;;;;;;4.87;2.45;;;;;;;;;;2349428;57;21670;-77
2022/01/23 17:06:52;;;;;;;4.20;2.58;;;;;;;;;;2349183;57;21108;-77
2022/01/23 17:09:20;;;;;;;5.18;3.08;;;;;;;;;;2596714;52;21057;-79
2022/01/23 17:11:47;;;;;;;11.25;3.85;;;;;;;;;;2349460;57;21528;-78
2022/01/23 17:14:14;;;;;;;10.98;3.95;;;;;;;;;;2349561;57;21044;-76
2022/01/23 17:16:41;;;;;;;889.80;99.37;;;;;;;;;;2348819;57;21695;-77
2022/01/23 17:19:08;;;;;;;60.80;7.97;;;;;;;;;;2348211;57;21033;-76
2022/01/23 17:21:35;;;;;;;1337.75;152.00;;;;;;;;;;2348974;57;21049;-77
2022/01/23 17:24:02;;;;;;;13.07;5.37;;;;;;;;;;2348365;57;21069;-77
2022/01/23 17:26:29;;;;;;;18.80;5.97;;;;;;;;;;2347862;57;21669;-76
2022/01/23 17:28:56;;;;;;;68.50;13.48;;;;;;;;;;2346544;57;21064;-77
2022/01/23 17:31:23;;;;;;;45.83;11.90;;;;;;;;;;2346867;57;21073;-77
2022/01/23 17:33:50;;;;;;;27.45;8.27;;;;;;;;;;2346219;57;21061;-78
2022/01/23 17:36:17;;;;;;;18.83;7.25;;;;;;;;;;2348926;57;21029;-77
2022/01/23 17:38:44;;;;;;;30.77;8.13;;;;;;;;;;2349017;57;21101;-78
2022/01/23 17:41:12;;;;;;;9.25;4.37;;;;;;;;;;2345877;57;21650;-77